Terminal Aerodrome Forecast
Issued by NWS

Home | Current Version | Previous Version | Text Only | Print | Product List | Glossary On
Versions: 1 2 3 4 5 6 7 8 9 10 11 12 13 14
000
FTUS43 KDDC 142320
TAFGCK
TAF
KGCK 142320Z 1500/1524 22004KT P6SM SKC
     FM151600 26014G24KT P6SM SCT250
     FM151800 29015G25KT P6SM SCT250
     FM152000 34015G25KT P6SM SCT250
     FM152300 02016G25KT P6SM SCT200=

USA.gov is the U.S. government's official web portal to all federal, state and local government web resources and services.